地図

経路データ

SID SEASON NUMBER BASIN SUBBASIN NAME ISO_TIME NATURE LAT LON WMO_WIND WMO_PRES WMO_AGENCY TRACK_TYPE DIST2LAND LANDFALL IFLAG USA_AGENCY USA_ATCF_ID USA_LAT USA_LON USA_RECORD USA_STATUS USA_WIND USA_PRES USA_SSHS USA_R34_NE USA_R34_SE USA_R34_SW USA_R34_NW USA_R50_NE USA_R50_SE USA_R50_SW USA_R50_NW USA_R64_NE USA_R64_SE USA_R64_SW USA_R64_NW USA_POCI USA_ROCI USA_RMW USA_EYE TOKYO_LAT TOKYO_LON TOKYO_GRADE TOKYO_WIND TOKYO_PRES TOKYO_R50_DIR TOKYO_R50_LONG TOKYO_R50_SHORT TOKYO_R30_DIR TOKYO_R30_LONG TOKYO_R30_SHORT TOKYO_LAND CMA_LAT CMA_LON CMA_CAT CMA_WIND CMA_PRES HKO_LAT HKO_LON HKO_CAT HKO_WIND HKO_PRES NEWDELHI_LAT NEWDELHI_LON NEWDELHI_GRADE NEWDELHI_WIND NEWDELHI_PRES NEWDELHI_CI NEWDELHI_DP NEWDELHI_POCI REUNION_LAT REUNION_LON REUNION_TYPE REUNION_WIND REUNION_PRES REUNION_TNUM REUNION_CI REUNION_RMW REUNION_R34_NE REUNION_R34_SE REUNION_R34_SW REUNION_R34_NW REUNION_R50_NE REUNION_R50_SE REUNION_R50_SW REUNION_R50_NW REUNION_R64_NE REUNION_R64_SE REUNION_R64_SW REUNION_R64_NW BOM_LAT BOM_LON BOM_TYPE BOM_WIND BOM_PRES BOM_TNUM BOM_CI BOM_RMW BOM_R34_NE BOM_R34_SE BOM_R34_SW BOM_R34_NW BOM_R50_NE BOM_R50_SE BOM_R50_SW BOM_R50_NW BOM_R64_NE BOM_R64_SE BOM_R64_SW BOM_R64_NW BOM_ROCI BOM_POCI BOM_EYE BOM_POS_METHOD BOM_PRES_METHOD NADI_LAT NADI_LON NADI_CAT NADI_WIND NADI_PRES WELLINGTON_LAT WELLINGTON_LON WELLINGTON_WIND WELLINGTON_PRES DS824_LAT DS824_LON DS824_STAGE DS824_WIND DS824_PRES TD9636_LAT TD9636_LON TD9636_STAGE TD9636_WIND TD9636_PRES TD9635_LAT TD9635_LON TD9635_WIND TD9635_PRES TD9635_ROCI NEUMANN_LAT NEUMANN_LON NEUMANN_CLASS NEUMANN_WIND NEUMANN_PRES MLC_LAT MLC_LON MLC_CLASS MLC_WIND MLC_PRES USA_GUST BOM_GUST BOM_GUST_PER REUNION_GUST REUNION_GUST_PER USA_SEAHGT USA_SEARAD_NE USA_SEARAD_SE USA_SEARAD_SW USA_SEARAD_NW STORM_SPEED STORM_DIR
1921048S21114 1921 13 SI WA NOT_NAMED 1921-02-17 01:00:00 NR -21.0000 113.900 bom main 101 101 ______O_______ -1 -21.0000 113.900 6 264
1921048S21114 1921 13 SI WA NOT_NAMED 1921-02-17 03:00:00 NR -21.0200 113.700 main 105 103 ______P_______ -1 -21.0200 113.700 6 261
1921048S21114 1921 13 SI WA NOT_NAMED 1921-02-17 06:00:00 NR -21.0730 113.411 main 108 108 ______P_______ -1 -21.0730 113.411 5 252
1921048S21114 1921 13 SI WA NOT_NAMED 1921-02-17 09:00:00 NR -21.1858 113.152 main 113 114 ______P_______ -1 -21.1858 113.152 5 234
1921048S21114 1921 13 SI WA NOT_NAMED 1921-02-17 12:00:00 NR -21.3945 112.940 main 126 121 ______P_______ -1 -21.3945 112.940 6 211
1921048S21114 1921 13 SI WA NOT_NAMED 1921-02-17 15:00:00 NR -21.7357 112.792 main 121 102 ______P_______ -1 -21.7357 112.792 9 193
1921048S21114 1921 13 SI WA NOT_NAMED 1921-02-17 18:00:00 NR -22.2459 112.726 main 102 51 ______P_______ -1 -22.2459 112.726 10 162
1921048S21114 1921 13 SI WA NOT_NAMED 1921-02-17 21:00:00 NR -22.7203 113.132 main 52 30 ______P_______ -1 -22.9619 112.762 15 160
1921048S21114 1921 13 SI WA NOT_NAMED 1921-02-18 00:00:00 TS -23.6554 113.278 main 30 20 ______P__O____ -1 -23.9203 112.917 -24.2000 113.000 TC 19 171
1921048S21114 1921 13 SI WA NOT_NAMED 1921-02-18 01:00:00 TS -23.9916 113.347 bom main 20 0 ______O__P____ -1 -24.3000 113.000 -24.5168 113.082 TC 22 174
1921048S21114 1921 13 SI WA NOT_NAMED 1921-02-18 03:00:00 TS -24.7242 113.395 main 23 0 ______P__P____ -1 -25.1278 113.206 -25.1503 113.248 TC 22 177
1921048S21114 1921 13 SI WA NOT_NAMED 1921-02-18 06:00:00 TS -25.8482 113.440 main 10 9 ______P__O____ -1 -26.2447 113.521 -26.1000 113.500 TC 50 989 -25.2000 113.300 7 22 178
1921048S21114 1921 13 SI WA NOT_NAMED 1921-02-18 07:00:00 TS -26.1558 113.456 989 bom main 9 0 ______O__P____ -1 -26.5000 113.600 989 4 -26.2167 113.527 TC 15 176
1921048S21114 1921 13 SI WA NOT_NAMED 1921-02-18 09:00:00 TS -26.5939 113.498 bom main 9 9 ______O__P____ -1 -26.8000 113.700 -26.4501 113.582 TC 11 172
1921048S21114 1921 13 SI WA NOT_NAMED 1921-02-18 12:00:00 TS -27.0602 113.610 main 22 14 ______P__P____ -1 -27.1390 113.805 -26.8002 113.665 TC 8 158
1921048S21114 1921 13 SI WA NOT_NAMED 1921-02-18 15:00:00 TS -27.2962 113.814 main 19 14 ______P__P____ -1 -27.4421 113.880 -27.1503 113.748 TC 6 156
1921048S21114 1921 13 SI WA NOT_NAMED 1921-02-18 18:00:00 TS -27.6245 113.889 main 22 19 ______P__P____ -1 -27.7177 113.932 -27.5003 113.831 TC 6 169
1921048S21114 1921 13 SI WA NOT_NAMED 1921-02-18 21:00:00 TS -27.9245 113.946 main 22 19 ______P__P____ -1 -27.9740 113.967 -27.8502 113.915 TC 6 171
1921048S21114 1921 13 SI WA NOT_NAMED 1921-02-19 00:00:00 TS -28.2128 113.995 main 22 22 ______P__O____ -1 -28.2193 113.992 -28.2000 114.000 TC 6 174
1921048S21114 1921 13 SI WA NOT_NAMED 1921-02-19 01:00:00 NR -28.3000 114.000 bom main 29 ______O_______ -1 -28.3000 114.000 TC 5 170

IBTrACS Databaseについて

本データベースは、米国NOAAが公開する1842年以降の世界の熱帯低気圧のベストトラックデータアーカイブInternational Best Track Archive for Climate Stewardship (IBTrACS)を、ウェブで閲覧しやすい形式に変換したものです。

最終更新日:2021-10-21